Main page
METAR-TAF:

METAR-TAF

Airports :

City of Derry Airport

Derry, Northern Ireland

latitude: 55-03N, longitude: 007-09W, elevation: 9 m

Current weather observation

The report was made 15 hours and 5 minutes ago, at 16:20 UTC
Wind 16 kt from the North/Northwest
Temperature 13°C
Humidity 72%
Pressure 1003 hPa
Visibility 10 km or more
Few clouds at a height of 1200 ft
Broken clouds at a height of 3500 ft
showers in vicinity

METAR: EGAE 041620Z 34016KT 9999 VCSH FEW012 BKN035 13/08 Q1003

Time: 08:25 (07:25 UTC)

Forecast

The report was made 17 hours and 28 minutes ago, at 13:57 UTC
Forecast valid from 04 at 15 UTC to 04 at 17 UTC
Wind 12 kt from the North/Northwest
Visibility 10 km or more
Scattered clouds at a height of 3000 ft
Probability 30% :
Temporary
from 04 at 15 UTC to 04 at 17 UTC
Wind 15 kt from the North with gusts up to 25 kt
Visibility: 8000 m
light rain showers

TAF: EGAE 041357Z 0415/0417 34012KT 9999 SCT030 PROB30 TEMPO 0415/0417 35015G25KT 8000 -SHRA

Weather observations and forecasts of more than 4000 airports (METAR and TAF reports).

The available stations are represented by yellow and red dots on the map.

Hover mouse over dot to see the name of the station.

Then click to see weather observations and forecasts.

To change the map : click on the green buttons with a black cross to zoom in, on the green button with a dash to zoom out, or on the green arrows for adjacent maps.


METAR-TAF: